Time;durP1;ratioP1;P1;durP2;ratioP2;P2;SDS_P1;SDS_P2;PMS_P1;PMS_P2;Temp;Humidity;BMP_temperature;BMP_pressure;BME280_temperature;BME280_humidity;BME280_pressure;Samples;Min_cycle;Max_cycle;Signal;HPM_P1;HPM_P2
2021/12/22 00:02:08;;;;;;;48.03;22.38;;;-2.00;99.90;;;;;;5035035;28;20614;-69
2021/12/22 00:04:42;;;;;;;56.25;23.10;;;-2.70;99.90;;;;;;5070758;28;20052;-70
2021/12/22 00:07:08;;;;;;;49.53;21.10;;;-2.70;99.90;;;;;;5069609;28;20117;-70
2021/12/22 00:09:34;;;;;;;47.13;21.45;;;-2.80;99.90;;;;;;5067970;28;20480;-69
2021/12/22 00:12:00;;;;;;;47.55;21.25;;;-2.80;99.90;;;;;;5052739;28;20071;-69
2021/12/22 00:14:25;;;;;;;46.25;19.23;;;-2.80;99.90;;;;;;5068314;28;20083;-69
2021/12/22 00:16:51;;;;;;;46.10;19.45;;;-2.90;99.90;;;;;;5069557;28;20039;-69
2021/12/22 00:19:17;;;;;;;46.28;19.60;;;-2.90;99.90;;;;;;5067443;28;20054;-69
2021/12/22 00:21:42;;;;;;;44.08;19.15;;;-2.90;99.90;;;;;;5068033;28;20043;-69
2021/12/22 00:24:08;;;;;;;45.60;21.08;;;-3.00;99.90;;;;;;5066236;28;20496;-69
2021/12/22 00:26:34;;;;;;;47.53;20.42;;;-2.90;99.90;;;;;;5066220;28;20047;-69
2021/12/22 00:29:00;;;;;;;47.83;21.15;;;-2.80;99.90;;;;;;5067387;28;20051;-70
2021/12/22 00:31:26;;;;;;;48.53;19.45;;;-2.80;99.90;;;;;;5068053;28;20386;-69
2021/12/22 00:33:53;;;;;;;54.30;20.48;;;-2.80;99.90;;;;;;5069004;28;20044;-71
2021/12/22 00:36:24;;;;;;;50.42;20.20;;;-2.80;99.90;;;;;;5067741;28;20538;-70
2021/12/22 00:38:52;;;;;;;43.92;18.85;;;-2.80;99.90;;;;;;5063661;28;20040;-68
2021/12/22 00:41:18;;;;;;;44.65;19.35;;;-2.80;99.90;;;;;;5067577;28;20036;-68
2021/12/22 00:43:44;;;;;;;42.80;18.13;;;-2.80;99.90;;;;;;5034193;28;20437;-68
2021/12/22 00:46:12;;;;;;;52.13;19.80;;;-2.80;99.90;;;;;;5064601;28;20113;-69
2021/12/22 00:48:38;;;;;;;53.13;18.50;;;-2.80;99.90;;;;;;5050949;28;20115;-69
2021/12/22 00:51:04;;;;;;;50.60;18.92;;;-2.80;99.90;;;;;;5049422;28;20409;-70
2021/12/22 00:53:30;;;;;;;46.95;17.33;;;-2.80;99.90;;;;;;5050601;28;20044;-70
2021/12/22 00:55:56;;;;;;;47.50;17.60;;;-2.30;99.90;;;;;;5067015;28;20571;-69
2021/12/22 00:58:22;;;;;;;39.47;16.45;;;-2.90;99.90;;;;;;5052543;28;20139;-69
2021/12/22 01:00:49;;;;;;;43.08;17.15;;;-2.90;99.90;;;;;;5067460;28;20101;-69
2021/12/22 01:03:20;;;;;;;43.58;17.33;;;-2.90;99.90;;;;;;5049870;28;20510;-69
2021/12/22 01:05:46;;;;;;;43.90;16.58;;;-2.90;99.90;;;;;;5068499;28;20063;-69
2021/12/22 01:08:12;;;;;;;45.47;17.52;;;-2.90;99.90;;;;;;5067031;28;20488;-68
2021/12/22 01:10:38;;;;;;;37.42;17.15;;;-2.40;99.90;;;;;;5066231;28;20435;-68
2021/12/22 01:13:06;;;;;;;47.58;18.13;;;-2.80;99.90;;;;;;5067499;28;20040;-68
2021/12/22 01:15:34;;;;;;;41.53;17.35;;;-2.80;99.90;;;;;;5049931;28;20056;-69
2021/12/22 01:18:10;;;;;;;51.42;19.15;;;-2.70;99.90;;;;;;5050235;28;20385;-69
2021/12/22 01:20:51;;;;;;;45.53;17.95;;;-2.70;99.90;;;;;;5068769;28;20059;-68
2021/12/22 01:23:20;;;;;;;43.42;16.98;;;-2.60;99.90;;;;;;5052449;28;20083;-68
2021/12/22 01:25:47;;;;;;;45.80;18.42;;;-2.70;99.90;;;;;;5050810;28;20044;-69
2021/12/22 01:28:14;;;;;;;38.83;16.50;;;-2.70;99.90;;;;;;5066243;28;20120;-68
2021/12/22 01:30:44;;;;;;;40.72;16.83;;;-2.80;99.90;;;;;;5066819;28;20059;-69
2021/12/22 01:33:10;;;;;;;45.40;16.80;;;-2.30;99.90;;;;;;5066793;28;20056;-69
2021/12/22 01:35:37;;;;;;;30.92;15.05;;;-2.90;99.90;;;;;;5050647;28;20075;-68
2021/12/22 01:38:04;;;;;;;41.78;16.80;;;-2.90;99.90;;;;;;5067862;28;20052;-69
2021/12/22 01:40:37;;;;;;;43.10;16.23;;;-2.60;99.90;;;;;;5065752;28;20093;-68
2021/12/22 01:43:05;;;;;;;40.67;15.65;;;-2.90;99.90;;;;;;5065714;28;20063;-68
2021/12/22 01:45:53;;;;;;;42.95;16.30;;;-2.90;99.90;;;;;;5049601;28;20051;-69
2021/12/22 01:51:55;;;;;;;40.40;16.35;;;-2.80;99.90;;;;;;5064250;28;20056;-69
2021/12/22 01:54:21;;;;;;;43.50;16.63;;;-2.70;99.90;;;;;;5050193;28;20495;-68
2021/12/22 01:56:49;;;;;;;39.65;15.77;;;-2.30;99.90;;;;;;5065966;28;20101;-69
2021/12/22 01:59:15;;;;;;;38.60;14.95;;;-2.70;99.90;;;;;;5065961;28;20097;-68
2021/12/22 02:01:41;;;;;;;35.33;14.45;;;-2.70;99.90;;;;;;5069790;28;20051;-69
2021/12/22 02:04:12;;;;;;;38.75;14.93;;;-2.60;99.90;;;;;;5072521;28;20388;-68
2021/12/22 02:06:39;;;;;;;46.67;15.82;;;-2.70;99.90;;;;;;5032573;28;20135;-68
2021/12/22 02:09:05;;;;;;;37.42;14.77;;;-2.70;99.90;;;;;;5060547;28;20056;-68
2021/12/22 02:11:31;;;;;;;32.15;14.25;;;-1.80;99.90;;;;;;5047446;28;20385;-68
2021/12/22 02:14:01;;;;;;;39.33;15.13;;;-2.70;99.90;;;;;;5068580;28;20041;-69
2021/12/22 02:16:31;;;;;;;33.53;14.88;;;-2.70;99.90;;;;;;5041721;28;20040;-68
2021/12/22 02:18:58;;;;;;;32.65;13.88;;;-2.80;99.90;;;;;;5059031;28;20048;-69
2021/12/22 02:21:29;;;;;;;32.00;13.25;;;-2.80;99.90;;;;;;5058640;28;20080;-69
2021/12/22 02:23:55;;;;;;;34.97;13.88;;;-2.00;99.90;;;;;;5067141;28;20500;-69
2021/12/22 02:26:31;;;;;;;33.95;13.05;;;-2.80;99.90;;;;;;5064327;28;20099;-68
2021/12/22 02:29:01;;;;;;;32.00;13.50;;;-2.70;99.90;;;;;;5055640;28;20191;-68
2021/12/22 02:31:27;;;;;;;34.78;13.48;;;-2.90;99.90;;;;;;5067647;28;20044;-69
2021/12/22 02:33:54;;;;;;;31.30;13.15;;;-2.90;99.90;;;;;;5052983;28;20048;-68
2021/12/22 02:38:52;;;;;;;35.03;13.65;;;-3.00;99.90;;;;;;5063722;28;20044;-68
2021/12/22 02:41:22;;;;;;;28.95;12.80;;;-3.00;99.90;;;;;;5058058;28;20045;-69
2021/12/22 02:43:51;;;;;;;33.38;12.95;;;-3.00;99.90;;;;;;5072731;28;20170;-69
2021/12/22 02:46:22;;;;;;;31.92;12.80;;;-3.00;99.90;;;;;;5063952;28;20054;-69
2021/12/22 02:48:49;;;;;;;26.33;12.15;;;-2.10;99.90;;;;;;5069513;28;20048;-69
2021/12/22 02:51:16;;;;;;;27.45;12.20;;;-2.80;99.90;;;;;;5013840;28;20518;-69
2021/12/22 02:56:26;;;;;;;26.75;11.88;;;-3.20;99.90;;;;;;5041148;28;20482;-69
2021/12/22 02:59:01;;;;;;;26.60;12.13;;;-3.20;99.90;;;;;;5035690;28;20231;-68
2021/12/22 03:04:08;;;;;;;25.67;11.15;;;-3.20;99.90;;;;;;5043846;28;20045;-68
2021/12/22 03:06:40;;;;;;;25.38;11.10;;;-3.30;99.90;;;;;;5047656;28;20123;-68
2021/12/22 03:09:16;;;;;;;25.50;12.07;;;-3.30;99.90;;;;;;5024558;28;20506;-69
2021/12/22 03:11:42;;;;;;;27.10;11.95;;;-2.90;99.90;;;;;;5038975;28;20045;-69
2021/12/22 03:14:09;;;;;;;33.50;12.80;;;-3.30;99.90;;;;;;5045111;28;20056;-68
2021/12/22 03:16:34;;;;;;;30.77;12.80;;;-3.30;99.90;;;;;;5028339;28;20107;-68
2021/12/22 03:19:00;;;;;;;26.92;12.43;;;-3.30;99.90;;;;;;5023348;28;20049;-68
2021/12/22 03:21:26;;;;;;;26.60;11.27;;;-3.30;99.90;;;;;;5045895;28;20036;-68
2021/12/22 03:23:53;;;;;;;26.65;12.18;;;-3.20;99.90;;;;;;5039372;28;20057;-70
2021/12/22 03:26:22;;;;;;;27.92;11.98;;;-3.40;99.90;;;;;;5047201;28;20122;-68
2021/12/22 03:28:48;;;;;;;27.73;12.30;;;-3.40;99.90;;;;;;5036060;28;20064;-68
2021/12/22 03:31:14;;;;;;;28.95;12.85;;;-3.40;99.90;;;;;;5024175;28;20478;-68
2021/12/22 03:33:41;;;;;;;28.83;12.55;;;-3.40;99.90;;;;;;5036530;28;20041;-69
2021/12/22 03:36:07;;;;;;;27.77;11.98;;;-3.50;99.90;;;;;;5043122;28;20048;-69
2021/12/22 03:38:34;;;;;;;25.98;12.20;;;-3.50;99.90;;;;;;5024300;28;20044;-69
2021/12/22 03:41:01;;;;;;;31.70;11.82;;;-3.50;99.90;;;;;;5023867;28;20498;-69
2021/12/22 03:43:27;;;;;;;30.60;12.45;;;-3.50;99.90;;;;;;5041541;28;20060;-68
2021/12/22 03:45:52;;;;;;;24.02;12.00;;;-3.50;99.90;;;;;;5013986;28;20041;-68
2021/12/22 03:48:22;;;;;;;27.75;12.60;;;-3.50;99.90;;;;;;5036166;28;20040;-68
2021/12/22 03:50:48;;;;;;;23.95;12.05;;;-2.90;99.90;;;;;;5041829;28;20053;-68
2021/12/22 03:53:14;;;;;;;27.00;12.15;;;-3.60;99.90;;;;;;5018317;28;20038;-68
2021/12/22 03:55:40;;;;;;;23.20;11.70;;;-3.40;99.90;;;;;;5046794;28;20119;-69
2021/12/22 03:58:06;;;;;;;27.00;11.75;;;-3.70;99.90;;;;;;5049132;28;20041;-68
2021/12/22 04:00:41;;;;;;;30.35;13.32;;;-3.70;99.90;;;;;;5025472;28;20040;-68
2021/12/22 04:03:16;;;;;;;29.33;12.32;;;-3.70;99.90;;;;;;5042346;28;20394;-68
2021/12/22 04:05:43;;;;;;;33.08;13.00;;;-3.70;99.90;;;;;;5018005;28;20079;-68
2021/12/22 04:08:11;;;;;;;26.40;12.65;;;-3.60;99.90;;;;;;5044161;28;20405;-69
2021/12/22 04:10:37;;;;;;;28.42;12.73;;;-3.60;99.90;;;;;;5039502;28;20052;-68
2021/12/22 04:13:03;;;;;;;30.23;12.73;;;-3.70;99.90;;;;;;5034657;28;20049;-68
2021/12/22 04:15:29;;;;;;;24.83;11.23;;;-3.70;99.90;;;;;;5027005;28;20068;-68
2021/12/22 04:17:55;;;;;;;25.25;11.82;;;-3.20;99.90;;;;;;5024061;28;20460;-68
2021/12/22 04:20:21;;;;;;;32.47;12.63;;;-3.70;99.90;;;;;;5042598;28;20042;-69
2021/12/22 04:22:47;;;;;;;27.42;12.43;;;-3.80;99.90;;;;;;5024754;28;20053;-68
2021/12/22 04:25:20;;;;;;;29.25;13.20;;;-3.80;99.90;;;;;;5021890;28;20458;-68
2021/12/22 04:27:50;;;;;;;30.83;11.82;;;-3.80;99.90;;;;;;5025703;28;20048;-69
2021/12/22 04:30:16;;;;;;;29.80;12.05;;;-3.00;99.90;;;;;;5042916;28;20053;-68
2021/12/22 04:32:41;;;;;;;30.70;13.00;;;-3.80;99.90;;;;;;5026918;28;20516;-70
2021/12/22 04:35:08;;;;;;;32.78;13.82;;;-3.80;99.90;;;;;;5047340;28;20061;-68
2021/12/22 04:37:33;;;;;;;34.08;14.00;;;-3.80;99.90;;;;;;5040772;28;20060;-68
2021/12/22 04:39:59;;;;;;;33.42;13.50;;;-3.80;99.90;;;;;;5044660;28;20490;-68
2021/12/22 04:42:25;;;;;;;31.92;14.20;;;-3.70;99.90;;;;;;5039975;28;20132;-68
2021/12/22 04:44:53;;;;;;;35.55;13.77;;;-3.80;99.90;;;;;;5034665;28;20069;-69
2021/12/22 04:47:20;;;;;;;28.55;12.85;;;-3.80;99.90;;;;;;5035746;28;20060;-69
2021/12/22 04:49:46;;;;;;;36.35;13.73;;;-3.70;99.90;;;;;;5024162;28;20402;-68
2021/12/22 04:52:19;;;;;;;30.17;13.85;;;-3.80;99.90;;;;;;5038752;28;20102;-68
2021/12/22 04:55:04;;;;;;;35.97;14.32;;;-3.80;99.90;;;;;;5035476;28;20378;-69
2021/12/22 04:57:33;;;;;;;31.45;13.77;;;-3.40;99.90;;;;;;5040299;28;20102;-70
2021/12/22 05:00:00;;;;;;;31.08;13.95;;;-3.90;99.90;;;;;;5039863;28;20037;-69
2021/12/22 05:02:27;;;;;;;32.47;14.38;;;-3.00;99.90;;;;;;5039965;28;20405;-69
2021/12/22 05:04:53;;;;;;;28.73;13.02;;;-3.90;99.90;;;;;;5034088;28;20033;-68
2021/12/22 05:07:19;;;;;;;32.30;13.85;;;-3.90;99.90;;;;;;5043558;28;20111;-69
2021/12/22 05:09:44;;;;;;;34.42;12.98;;;-4.00;99.90;;;;;;5029113;28;20044;-69
2021/12/22 05:12:10;;;;;;;31.90;13.18;;;-4.00;99.90;;;;;;5032284;28;20032;-68
2021/12/22 05:14:36;;;;;;;30.88;12.32;;;-4.00;99.90;;;;;;5041472;28;20033;-69
2021/12/22 05:17:05;;;;;;;29.60;12.88;;;-4.10;99.90;;;;;;5042090;28;20215;-68
2021/12/22 05:19:30;;;;;;;30.05;13.60;;;-4.00;99.90;;;;;;5024412;28;20045;-69
2021/12/22 05:21:56;;;;;;;29.25;12.77;;;-4.00;99.90;;;;;;5038478;28;20070;-68
2021/12/22 05:24:22;;;;;;;31.90;13.98;;;-4.00;99.90;;;;;;5022962;28;20110;-69
2021/12/22 05:26:48;;;;;;;32.88;14.23;;;-3.20;99.90;;;;;;5046985;28;20138;-69
2021/12/22 05:29:16;;;;;;;30.50;13.18;;;-4.10;99.90;;;;;;5037612;28;20037;-69
2021/12/22 05:31:41;;;;;;;35.40;13.65;;;-4.00;99.90;;;;;;5049189;28;20055;-69
2021/12/22 05:34:08;;;;;;;30.45;13.02;;;-4.10;99.90;;;;;;5032265;28;20044;-69
2021/12/22 05:36:33;;;;;;;34.42;13.65;;;-4.10;99.90;;;;;;5043602;28;20037;-69
2021/12/22 05:38:59;;;;;;;31.70;13.00;;;-4.10;99.90;;;;;;5034733;28;20478;-69
2021/12/22 05:41:25;;;;;;;31.00;13.13;;;-2.90;99.90;;;;;;5028336;28;20041;-68
2021/12/22 05:43:51;;;;;;;33.75;12.85;;;-4.10;99.90;;;;;;5022285;28;20052;-69
2021/12/22 05:46:17;;;;;;;31.20;13.00;;;-3.40;99.90;;;;;;5045732;28;20047;-68
2021/12/22 05:48:44;;;;;;;31.60;12.82;;;-4.10;99.90;;;;;;5038834;28;20053;-68
2021/12/22 05:51:11;;;;;;;29.10;12.82;;;-4.00;99.90;;;;;;5027103;28;20367;-70
2021/12/22 05:53:37;;;;;;;31.38;13.13;;;-4.00;99.90;;;;;;5030153;28;20045;-68
2021/12/22 05:56:03;;;;;;;31.10;13.75;;;-2.90;99.90;;;;;;5027094;28;20175;-69
2021/12/22 05:58:29;;;;;;;34.38;13.63;;;-4.10;99.90;;;;;;5031511;28;20052;-68
2021/12/22 06:00:55;;;;;;;30.50;14.20;;;-4.00;99.90;;;;;;5051130;28;20049;-70
2021/12/22 06:03:21;;;;;;;32.83;13.57;;;-4.00;99.90;;;;;;5045089;28;20095;-69
2021/12/22 06:05:47;;;;;;;29.33;12.85;;;-4.10;99.90;;;;;;5035536;28;20052;-69
2021/12/22 06:08:13;;;;;;;35.83;14.40;;;-4.10;99.90;;;;;;5037914;28;20055;-68
2021/12/22 06:10:38;;;;;;;32.78;12.90;;;-4.00;99.90;;;;;;5043461;28;20102;-68
2021/12/22 06:13:06;;;;;;;33.72;14.68;;;-4.10;99.90;;;;;;5022841;28;20049;-68
2021/12/22 06:15:33;;;;;;;30.30;13.57;;;-3.30;99.90;;;;;;5037478;28;20060;-69
2021/12/22 06:18:00;;;;;;;36.40;14.98;;;-3.80;99.90;;;;;;5037939;28;20052;-69
2021/12/22 06:20:27;;;;;;;24.77;11.55;;;-3.70;99.90;;;;;;5032372;28;20041;-69
2021/12/22 06:22:53;;;;;;;34.80;15.13;;;-3.30;99.90;;;;;;5044127;28;20402;-69
2021/12/22 06:25:19;;;;;;;32.17;14.45;;;-4.00;99.90;;;;;;5027933;28;20397;-68
2021/12/22 06:27:45;;;;;;;32.08;13.70;;;-3.10;99.90;;;;;;5041826;28;20037;-68
2021/12/22 06:30:11;;;;;;;30.42;13.02;;;-4.00;99.90;;;;;;5028936;28;20045;-68
2021/12/22 06:32:38;;;;;;;34.45;13.38;;;-4.00;99.90;;;;;;5044861;28;20048;-68
2021/12/22 06:35:04;;;;;;;34.83;14.27;;;-3.00;99.90;;;;;;5040562;28;20128;-68
2021/12/22 06:37:30;;;;;;;30.35;12.52;;;-4.00;99.90;;;;;;5038583;28;20068;-68
2021/12/22 06:39:55;;;;;;;33.33;14.38;;;-4.10;99.90;;;;;;5030049;28;20486;-68
2021/12/22 06:42:22;;;;;;;32.13;12.93;;;-4.10;99.90;;;;;;5029938;28;20040;-68
2021/12/22 06:44:49;;;;;;;29.00;13.23;;;-4.00;99.90;;;;;;5023939;28;20052;-69
2021/12/22 06:47:15;;;;;;;33.97;13.25;;;-4.10;99.90;;;;;;5012740;28;20048;-68
2021/12/22 06:49:41;;;;;;;32.67;14.25;;;-4.10;99.90;;;;;;5042915;28;20482;-69
2021/12/22 06:52:07;;;;;;;35.08;14.07;;;-4.10;99.90;;;;;;5029745;28;20069;-68
2021/12/22 06:54:33;;;;;;;35.85;14.90;;;-4.10;99.90;;;;;;5047406;28;20053;-68
2021/12/22 06:56:58;;;;;;;32.28;12.85;;;-3.30;99.90;;;;;;5070976;28;20494;-69
2021/12/22 06:59:24;;;;;;;32.85;14.65;;;-4.10;99.90;;;;;;5029773;28;20419;-68
2021/12/22 07:01:51;;;;;;;34.17;13.55;;;-3.90;99.90;;;;;;5030828;28;20595;-68
2021/12/22 07:04:20;;;;;;;33.33;13.95;;;-4.10;99.90;;;;;;5041936;28;20061;-69
2021/12/22 07:06:46;;;;;;;36.83;14.43;;;-4.10;99.90;;;;;;5033221;28;20060;-69
2021/12/22 07:09:12;;;;;;;32.38;13.32;;;-4.10;99.90;;;;;;5029367;28;20127;-69
2021/12/22 07:11:38;;;;;;;35.40;14.40;;;-3.90;99.90;;;;;;5024637;28;20059;-68
2021/12/22 07:14:07;;;;;;;37.65;15.15;;;-4.10;99.90;;;;;;5038296;28;20402;-69
2021/12/22 07:16:33;;;;;;;34.03;14.52;;;-4.10;99.90;;;;;;5039801;28;20520;-68
2021/12/22 07:18:59;;;;;;;32.33;14.50;;;-4.10;99.90;;;;;;5060703;28;20118;-68
2021/12/22 07:21:25;;;;;;;34.40;14.38;;;-4.10;99.90;;;;;;5050098;28;20485;-68
2021/12/22 07:23:51;;;;;;;34.22;14.60;;;-4.10;99.90;;;;;;5034394;28;20104;-68
2021/12/22 07:26:17;;;;;;;33.55;14.85;;;-4.10;99.90;;;;;;5039660;28;20135;-69
2021/12/22 07:28:45;;;;;;;35.10;14.43;;;-4.10;99.90;;;;;;5030774;28;20135;-68
2021/12/22 07:31:12;;;;;;;34.67;14.57;;;-4.10;99.90;;;;;;5024391;28;20108;-68
2021/12/22 07:33:40;;;;;;;34.08;14.05;;;-4.10;99.90;;;;;;5022531;28;20110;-68
2021/12/22 07:36:06;;;;;;;37.25;14.20;;;-4.10;99.90;;;;;;5025007;28;20477;-68
2021/12/22 07:38:56;;;;;;;30.17;14.05;;;-4.10;99.90;;;;;;5036159;28;20052;-68
2021/12/22 07:41:22;;;;;;;32.80;13.57;;;-4.10;99.90;;;;;;5048618;28;20044;-68
2021/12/22 07:43:47;;;;;;;35.97;14.75;;;-4.00;99.90;;;;;;5031031;28;20040;-69
2021/12/22 07:46:13;;;;;;;34.85;13.57;;;-4.00;99.90;;;;;;5040294;28;20041;-68
2021/12/22 07:48:39;;;;;;;32.65;14.75;;;-4.10;99.90;;;;;;5043203;28;20055;-68
2021/12/22 07:51:05;;;;;;;34.17;14.25;;;-4.10;99.90;;;;;;5038527;28;20060;-69
2021/12/22 07:53:31;;;;;;;35.97;14.45;;;-3.50;99.90;;;;;;5037768;28;20045;-69
2021/12/22 07:55:57;;;;;;;33.15;14.38;;;-4.00;99.90;;;;;;5023611;28;20045;-68
2021/12/22 07:58:24;;;;;;;33.35;14.55;;;-4.00;99.90;;;;;;5011982;28;20836;-68
2021/12/22 08:00:51;;;;;;;37.00;14.43;;;-4.00;99.90;;;;;;5051118;28;20049;-68
2021/12/22 08:03:17;;;;;;;36.97;14.55;;;-3.90;99.90;;;;;;5047022;28;20052;-68
2021/12/22 08:05:43;;;;;;;38.40;14.73;;;-3.30;99.90;;;;;;5032804;28;20060;-68
2021/12/22 08:08:09;;;;;;;37.33;14.95;;;-3.90;99.90;;;;;;5038117;28;20204;-68
2021/12/22 08:10:35;;;;;;;37.15;14.45;;;-3.20;99.90;;;;;;5033933;28;20044;-70
2021/12/22 08:13:01;;;;;;;39.10;15.57;;;-3.80;99.90;;;;;;5025769;28;20045;-68
2021/12/22 08:15:27;;;;;;;41.55;14.52;;;-3.80;99.90;;;;;;5033060;28;20044;-68
2021/12/22 08:17:53;;;;;;;40.83;14.35;;;-3.80;99.90;;;;;;5051099;28;20048;-69
2021/12/22 08:20:20;;;;;;;38.83;15.45;;;-3.70;99.90;;;;;;5047195;28;20063;-68
2021/12/22 08:22:46;;;;;;;36.03;15.27;;;-2.90;99.90;;;;;;5030479;28;20113;-68
2021/12/22 08:25:12;;;;;;;38.17;15.40;;;-3.60;99.90;;;;;;5046582;28;20052;-69
2021/12/22 08:27:39;;;;;;;36.50;14.88;;;-3.50;99.90;;;;;;5052124;28;20041;-69
2021/12/22 08:30:06;;;;;;;39.40;14.73;;;-3.50;99.90;;;;;;5035178;28;20052;-69
2021/12/22 08:32:33;;;;;;;36.72;14.43;;;-3.40;99.90;;;;;;5047776;28;20080;-68
2021/12/22 08:34:59;;;;;;;42.10;16.00;;;-3.40;99.90;;;;;;5046745;28;20060;-68
2021/12/22 08:40:11;;;;;;;40.50;15.15;;;-3.30;99.90;;;;;;5048278;28;20061;-69
2021/12/22 08:42:37;;;;;;;37.35;15.85;;;-3.20;99.90;;;;;;5034694;28;20052;-68
2021/12/22 08:45:04;;;;;;;35.88;15.02;;;-3.10;99.90;;;;;;5052446;28;20052;-68
2021/12/22 08:47:30;;;;;;;43.05;16.52;;;-3.00;99.90;;;;;;5051121;28;20079;-70
2021/12/22 08:49:56;;;;;;;35.40;15.63;;;-2.50;99.90;;;;;;5051096;28;20087;-68
2021/12/22 08:52:22;;;;;;;39.67;17.25;;;-2.90;99.90;;;;;;5021350;28;20397;-69
2021/12/22 08:54:47;;;;;;;39.25;16.35;;;-2.00;99.90;;;;;;5052938;28;20048;-68
2021/12/22 08:57:13;;;;;;;42.00;16.58;;;-2.80;99.90;;;;;;5035442;28;20063;-69
2021/12/22 08:59:39;;;;;;;38.28;15.98;;;-1.90;99.90;;;;;;5050813;28;20111;-68
2021/12/22 09:02:05;;;;;;;41.40;16.33;;;-2.70;99.90;;;;;;5044001;28;20131;-68
2021/12/22 09:04:31;;;;;;;45.33;17.35;;;-2.50;99.90;;;;;;5049714;28;20482;-69
2021/12/22 09:06:57;;;;;;;35.17;15.25;;;-2.30;99.90;;;;;;5052096;28;20101;-69
2021/12/22 09:09:23;;;;;;;42.05;16.27;;;-2.50;99.90;;;;;;5049310;28;20044;-69
2021/12/22 09:11:50;;;;;;;39.13;15.05;;;-2.40;99.90;;;;;;5027500;28;20474;-68
2021/12/22 09:14:18;;;;;;;40.88;16.08;;;-2.30;99.90;;;;;;5049076;28;20083;-68
2021/12/22 09:16:44;;;;;;;36.42;15.98;;;-2.30;99.90;;;;;;5051208;28;20040;-69
2021/12/22 09:19:10;;;;;;;38.75;16.45;;;-2.30;99.90;;;;;;5027800;28;20053;-69
2021/12/22 09:21:37;;;;;;;37.30;16.50;;;-2.30;99.90;;;;;;5028868;28;20197;-68
2021/12/22 09:24:03;;;;;;;42.95;16.52;;;-2.30;99.90;;;;;;5044021;28;20076;-69
2021/12/22 09:26:29;;;;;;;41.88;15.18;;;-2.20;99.90;;;;;;5052669;28;20481;-69
2021/12/22 09:28:56;;;;;;;36.65;16.77;;;-2.30;99.90;;;;;;5051773;28;20047;-68
2021/12/22 09:31:22;;;;;;;40.10;16.48;;;-1.30;99.90;;;;;;5046871;28;20048;-68
2021/12/22 09:33:49;;;;;;;40.60;15.77;;;-1.60;99.90;;;;;;5017249;28;20489;-69
2021/12/22 09:36:15;;;;;;;36.10;16.20;;;-2.10;99.90;;;;;;5033893;28;20040;-69
2021/12/22 09:38:42;;;;;;;35.50;15.75;;;-2.10;99.90;;;;;;5043262;28;20040;-70
2021/12/22 09:41:09;;;;;;;37.05;15.95;;;-2.00;99.90;;;;;;5032175;28;20378;-70
2021/12/22 09:43:34;;;;;;;43.95;17.15;;;-2.00;99.90;;;;;;5027295;28;20655;-70
2021/12/22 09:46:08;;;;;;;40.22;17.02;;;-1.90;99.90;;;;;;5043025;28;20084;-69
2021/12/22 09:53:38;;;;;;;39.22;15.68;;;-1.50;99.90;;;;;;5044005;28;20486;-69
2021/12/22 09:56:04;;;;;;;42.28;16.73;;;-1.70;99.90;;;;;;5044803;28;20056;-69
2021/12/22 09:58:30;;;;;;;36.80;15.43;;;-1.70;99.90;;;;;;5048079;28;21999;-70
2021/12/22 10:00:57;;;;;;;43.70;17.58;;;-1.60;99.90;;;;;;5053077;28;20055;-71
2021/12/22 10:03:24;;;;;;;35.75;16.60;;;-1.60;99.90;;;;;;5047707;28;20048;-71
2021/12/22 10:05:52;;;;;;;41.83;17.42;;;-1.30;99.90;;;;;;5050587;28;20049;-71
2021/12/22 10:08:24;;;;;;;39.20;16.05;;;-0.80;99.90;;;;;;5047628;28;20489;-71
2021/12/22 10:11:04;;;;;;;35.95;15.75;;;-1.30;99.90;;;;;;5050507;28;20055;-72
2021/12/22 10:13:30;;;;;;;41.90;15.80;;;-1.20;99.90;;;;;;5027667;28;20060;-72
2021/12/22 10:15:58;;;;;;;38.05;16.55;;;-0.80;99.90;;;;;;5033349;28;20049;-72
2021/12/22 10:18:29;;;;;;;39.88;17.08;;;-1.10;99.90;;;;;;5049881;28;20131;-72
2021/12/22 10:21:21;;;;;;;36.95;16.10;;;0.00;99.90;;;;;;5030167;28;20044;-72
2021/12/22 10:23:49;;;;;;;35.55;15.25;;;-0.90;99.90;;;;;;5034613;28;20057;-72
2021/12/22 10:26:18;;;;;;;36.85;16.52;;;-0.70;99.90;;;;;;5051269;28;20110;-73
2021/12/22 10:28:54;;;;;;;33.88;15.93;;;-0.70;99.90;;;;;;5039205;28;20041;-73
2021/12/22 10:31:31;;;;;;;38.85;16.48;;;-0.10;99.90;;;;;;5042316;28;20052;-72
2021/12/22 10:33:58;;;;;;;35.17;15.52;;;-0.50;99.90;;;;;;5042518;28;20059;-72
2021/12/22 10:36:24;;;;;;;36.05;16.48;;;-0.40;99.90;;;;;;5028014;28;20056;-72
2021/12/22 10:38:59;;;;;;;34.13;15.68;;;-0.30;99.90;;;;;;5039574;28;20061;-72
2021/12/22 10:41:28;;;;;;;33.75;15.82;;;0.20;99.90;;;;;;5040065;28;20078;-72
2021/12/22 10:43:54;;;;;;;36.10;16.05;;;-0.30;99.90;;;;;;5049536;28;20056;-73
2021/12/22 10:46:30;;;;;;;34.42;15.48;;;0.00;99.90;;;;;;5042313;28;20041;-73
2021/12/22 10:49:26;;;;;;;31.85;15.48;;;-0.20;99.90;;;;;;5052838;28;20094;-73
2021/12/22 10:51:54;;;;;;;36.83;16.90;;;-0.10;99.90;;;;;;5030408;28;20576;-73
2021/12/22 10:54:28;;;;;;;39.47;16.73;;;0.70;99.90;;;;;;5039475;28;20150;-73
2021/12/22 10:56:58;;;;;;;34.08;15.35;;;0.20;99.90;;;;;;5006665;28;20060;-73
2021/12/22 10:59:24;;;;;;;29.35;14.80;;;0.40;99.90;;;;;;5053286;28;20047;-72
2021/12/22 11:01:53;;;;;;;35.17;16.15;;;1.00;99.90;;;;;;5035730;28;20064;-73
2021/12/22 11:04:23;;;;;;;26.98;14.25;;;1.10;99.90;;;;;;5056141;28;20127;-73
2021/12/22 11:06:51;;;;;;;31.10;14.32;;;1.00;99.90;;;;;;5046661;28;20048;-74
2021/12/22 11:09:19;;;;;;;28.27;14.32;;;0.50;99.90;;;;;;5035037;28;20056;-73
2021/12/22 11:11:49;;;;;;;30.63;14.20;;;0.50;99.90;;;;;;5027702;28;20128;-74
2021/12/22 11:14:22;;;;;;;29.05;14.38;;;0.50;99.90;;;;;;5044938;28;20044;-74
2021/12/22 11:16:51;;;;;;;30.75;13.73;;;0.60;99.90;;;;;;5034757;28;20519;-73
2021/12/22 11:19:17;;;;;;;30.42;13.60;;;0.60;99.90;;;;;;5047538;28;20052;-73
2021/12/22 11:22:02;;;;;;;28.42;13.82;;;0.80;99.90;;;;;;5048535;28;20466;-73
2021/12/22 11:24:31;;;;;;;27.98;14.02;;;1.20;99.90;;;;;;5050659;28;20040;-73
2021/12/22 11:26:57;;;;;;;30.52;12.98;;;0.70;99.90;;;;;;5035263;28;20090;-73
2021/12/22 11:29:24;;;;;;;28.05;13.10;;;1.70;99.90;;;;;;5046106;28;20048;-73
2021/12/22 11:31:51;;;;;;;24.25;12.73;;;1.60;99.90;;;;;;5051404;28;20439;-73
2021/12/22 11:34:19;;;;;;;26.10;11.40;;;0.80;99.90;;;;;;5039300;28;20053;-73
2021/12/22 11:36:45;;;;;;;25.92;13.15;;;1.40;99.90;;;;;;5045826;28;20054;-72
2021/12/22 11:39:12;;;;;;;22.63;11.25;;;1.20;99.90;;;;;;5055711;28;20045;-73
2021/12/22 11:41:44;;;;;;;26.27;12.63;;;1.00;99.90;;;;;;5039072;28;20052;-73
2021/12/22 11:44:10;;;;;;;;;;;1.30;99.90;;;;;;5055509;28;20084;-73
2021/12/22 11:46:37;;;;;;;26.10;12.48;;;2.00;99.90;;;;;;5046258;28;19921;-72
2021/12/22 11:49:03;;;;;;;25.10;12.13;;;1.80;99.90;;;;;;5017234;28;20131;-73
2021/12/22 11:51:32;;;;;;;22.38;11.27;;;1.90;99.90;;;;;;5054036;28;20056;-73
2021/12/22 11:54:09;;;;;;;23.75;11.43;;;1.90;99.90;;;;;;5052588;28;20048;-72
2021/12/22 11:56:47;;;;;;;23.58;11.70;;;2.80;99.90;;;;;;5054169;28;20045;-72
2021/12/22 11:59:27;;;;;;;24.38;12.32;;;2.20;99.90;;;;;;5051711;28;20080;-73
2021/12/22 12:02:30;;;;;;;28.33;12.55;;;2.50;99.90;;;;;;5048722;28;20357;-73
2021/12/22 12:05:16;;;;;;;23.77;11.68;;;2.50;99.90;;;;;;5067407;28;20063;-73
2021/12/22 12:07:46;;;;;;;24.70;11.95;;;2.70;99.90;;;;;;5053896;28;20178;-72
2021/12/22 12:10:32;;;;;;;23.02;11.43;;;2.80;99.90;;;;;;5048329;28;20141;-73
2021/12/22 12:13:07;;;;;;;22.60;11.88;;;2.90;99.90;;;;;;5055684;28;20045;-72
2021/12/22 12:21:37;;;;;;;23.58;11.32;;;3.20;99.90;;;;;;5045507;28;20041;-72
2021/12/22 12:21:59;;;;;;;24.20;10.98;;;3.00;99.90;;;;;;5041252;28;20135;-72
2021/12/22 12:24:33;;;;;;;21.70;11.93;;;2.40;99.90;;;;;;5046075;28;20064;-73
2021/12/22 12:27:02;;;;;;;24.85;11.82;;;2.50;99.90;;;;;;5072130;28;20072;-72
2021/12/22 12:29:53;;;;;;;23.38;11.43;;;2.50;99.90;;;;;;5053694;28;20048;-72
2021/12/22 12:32:40;;;;;;;26.70;11.90;;;2.30;99.90;;;;;;5031950;28;20129;-73
2021/12/22 12:35:26;;;;;;;20.85;10.90;;;2.40;99.90;;;;;;5039180;28;20102;-73
2021/12/22 12:38:12;;;;;;;23.20;11.65;;;3.00;99.90;;;;;;5031047;28;20119;-72
2021/12/22 12:40:57;;;;;;;20.52;10.13;;;2.80;99.90;;;;;;5049191;28;20045;-72
2021/12/22 12:43:44;;;;;;;23.38;10.95;;;3.40;99.90;;;;;;5029558;28;20714;-73
2021/12/22 12:46:19;;;;;;;23.40;11.45;;;2.70;99.90;;;;;;5046417;28;20075;-73
2021/12/22 12:48:53;;;;;;;20.05;10.73;;;3.50;99.90;;;;;;5063165;28;20398;-72
2021/12/22 12:51:28;;;;;;;20.25;10.30;;;2.60;99.90;;;;;;5046612;28;20485;-73
2021/12/22 12:54:03;;;;;;;20.65;10.23;;;2.60;99.90;;;;;;5017870;28;20040;-72
2021/12/22 12:56:31;;;;;;;24.05;10.90;;;2.70;99.90;;;;;;5037217;28;20048;-73
2021/12/22 12:58:59;;;;;;;20.45;10.27;;;3.00;99.90;;;;;;5040259;28;20044;-73